.
WxDataArchive / Data Records for 2011-05-17
2011-05-16 May 2011 2011-05-18

Data Records for Tuesday, 17 May 2011

Time	Temp	Chill	HIndex	Humid	Dewpt	 Wind 	HiWind	WindDir	Rain 	Barom 
-----	----	-----	------	-----	-----	------	------	-------	-----	----- 
00:00	44.2	44.2	44.2	87	40.6	3	6	112	0.00	29.960 
00:05	44.1	44.1	44.1	87	40.5	1	7	90	0.00	29.960 
00:10	43.8	43.8	43.8	86	39.9	2	7	90	0.00	29.960 
00:15	43.6	43.6	43.6	86	39.7	1	4	135	0.00	29.957 
00:20	43.5	43.5	43.5	85	39.3	1	4	158	0.00	29.957 
00:25	43.5	43.5	43.5	84	39.0	1	5	68	0.00	29.957 
00:30	43.5	43.5	43.5	84	39.0	1	3	90	0.00	29.956 
00:35	43.5	43.5	43.5	84	39.0	0	3	90	0.00	29.956 
00:40	43.5	43.5	43.5	83	38.7	1	4	90	0.00	29.956 
00:45	43.5	43.5	43.5	82	38.4	1	5	90	0.00	29.956 
00:50	43.5	43.5	43.5	82	38.4	1	4	112	0.00	29.956 
00:55	43.5	43.5	43.5	82	38.4	0	3	90	0.00	29.956 
01:00	43.5	43.5	43.5	82	38.4	1	4	0	0.00	29.952 
01:05	43.6	43.6	43.6	82	38.5	1	5	112	0.00	29.952 
01:10	43.6	43.6	43.6	81	38.2	0	3	112	0.00	29.952 
01:15	43.6	43.6	43.6	81	38.2	1	6	112	0.00	29.945 
01:20	43.6	43.6	43.6	81	38.2	1	3	112	0.00	29.945 
01:25	43.6	43.6	43.6	81	38.2	1	4	112	0.00	29.945 
01:30	43.8	43.8	43.8	81	38.4	1	3	112	0.00	29.941 
01:35	43.8	43.8	43.8	81	38.4	1	4	112	0.00	29.941 
01:40	43.8	43.8	43.8	81	38.4	1	2	90	0.00	29.941 
01:45	43.8	43.8	43.8	81	38.4	0	2	90	0.00	29.937 
01:50	43.8	43.8	43.8	82	38.7	2	5	112	0.00	29.937 
01:55	43.6	43.6	43.6	83	38.8	1	4	90	0.00	29.937 
02:00	43.5	43.5	43.5	83	38.7	1	5	90	0.00	29.934 
02:05	43.5	43.5	43.5	84	39.0	0	1	90	0.00	29.934 
02:10	43.5	43.5	43.5	84	39.0	0	2	90	0.00	29.934 
02:15	43.3	43.3	43.3	85	39.1	0	2	90	0.00	29.927 
02:20	43.3	43.3	43.3	85	39.1	0	0	---	0.00	29.927 
02:25	43.5	43.5	43.5	86	39.6	0	2	90	0.00	29.927 
02:30	43.5	43.5	43.5	86	39.6	0	4	135	0.00	29.925 
02:35	43.5	43.5	43.5	86	39.6	0	2	135	0.00	29.925 
02:40	43.6	43.6	43.6	86	39.7	1	4	135	0.00	29.925 
02:45	43.6	43.6	43.6	86	39.7	0	0	---	0.00	29.914 
02:50	43.6	43.6	43.6	87	40.0	0	1	225	0.00	29.914 
02:55	43.6	43.6	43.6	87	40.0	0	1	225	0.00	29.914 
03:00	43.5	43.5	43.5	88	40.2	0	1	225	0.00	29.910 
03:05	43.5	43.5	43.5	88	40.2	0	1	225	0.00	29.910 
03:10	43.5	43.5	43.5	88	40.2	0	1	225	0.00	29.910 
03:15	43.3	43.3	43.3	89	40.3	0	1	225	0.00	29.904 
03:20	43.3	43.3	43.3	89	40.3	0	1	225	0.00	29.904 
03:25	43.3	43.3	43.3	89	40.3	0	0	---	0.00	29.904 
03:30	43.3	43.3	43.3	89	40.3	0	1	225	0.00	29.901 
03:35	43.3	43.3	43.3	89	40.3	0	1	225	0.00	29.901 
03:40	43.3	43.3	43.3	89	40.3	0	0	---	0.00	29.901 
03:45	43.5	43.5	43.5	89	40.5	0	0	---	0.00	29.905 
03:50	43.5	43.5	43.5	89	40.5	0	0	---	0.00	29.905 
03:55	43.6	43.6	43.6	89	40.6	0	2	225	0.00	29.905 
04:00	43.8	43.8	43.8	89	40.8	0	1	225	0.00	29.902 
04:05	43.9	43.9	43.9	89	40.9	0	0	---	0.00	29.902 
04:10	43.9	43.9	43.9	88	40.6	0	0	---	0.00	29.902 
04:15	44.1	44.1	44.1	88	40.8	0	2	225	0.00	29.902 
04:20	44.1	44.1	44.1	88	40.8	0	2	225	0.00	29.902 
04:25	44.2	44.2	44.2	87	40.6	0	2	225	0.00	29.902 
04:30	44.3	44.3	44.3	87	40.7	0	0	---	0.00	29.899 
04:35	44.3	44.3	44.3	87	40.7	0	1	225	0.00	29.899 
04:40	44.5	44.5	44.5	86	40.6	0	1	225	0.00	29.899 
04:45	44.6	44.6	44.6	86	40.7	0	2	202	0.00	29.897 
04:50	44.6	44.6	44.6	85	40.4	0	2	202	0.00	29.897 
04:55	44.8	44.8	44.8	85	40.6	0	1	202	0.00	29.897 
05:00	44.8	44.8	44.8	85	40.6	0	1	202	0.00	29.895 
05:05	44.9	44.9	44.9	84	40.4	0	1	202	0.00	29.895 
05:10	44.9	44.9	44.9	84	40.4	0	1	202	0.00	29.895 
05:15	45.1	45.1	45.1	84	40.6	0	0	---	0.00	29.895 
05:20	45.1	45.1	45.1	83	40.3	0	1	202	0.00	29.895 
05:25	45.1	45.1	45.1	83	40.3	0	0	---	0.00	29.895 
05:30	45.1	45.1	45.1	83	40.3	0	0	---	0.00	29.896 
05:35	45.2	45.2	45.2	83	40.3	0	1	202	0.00	29.896 
05:40	45.2	45.2	45.2	82	40.0	0	1	202	0.00	29.896 
05:45	45.2	45.2	45.2	82	40.0	0	1	202	0.00	29.896 
05:50	45.2	45.2	45.2	81	39.7	0	0	---	0.00	29.896 
05:55	45.4	45.4	45.4	81	39.9	0	0	---	0.00	29.896 
06:00	45.4	45.4	45.4	81	39.9	0	1	202	0.00	29.897 
06:05	45.4	45.4	45.4	81	39.9	0	4	135	0.00	29.897 
06:10	45.4	45.4	45.4	80	39.6	0	5	135	0.00	29.897 
06:15	45.5	45.5	45.5	81	40.0	0	1	135	0.00	29.897 
06:20	45.5	45.5	45.5	80	39.7	0	2	135	0.00	29.897 
06:25	45.4	45.4	45.4	79	39.3	0	2	135	0.00	29.897 
06:30	45.5	45.5	45.5	79	39.4	0	2	135	0.00	29.898 
06:35	45.5	45.5	45.5	80	39.7	0	1	135	0.00	29.898 
06:40	45.5	45.5	45.5	79	39.4	0	2	135	0.00	29.898 
06:45	45.5	45.5	45.5	79	39.4	0	1	158	0.00	29.899 
06:50	45.7	45.7	45.7	79	39.6	0	3	158	0.00	29.899 
06:55	45.7	45.7	45.7	79	39.6	0	1	158	0.00	29.899 
07:00	45.7	45.7	45.7	79	39.6	0	1	158	0.00	29.898 
07:05	45.7	45.7	45.7	79	39.6	0	1	158	0.00	29.898 
07:10	45.8	45.8	45.8	79	39.7	0	1	158	0.00	29.898 
07:15	45.8	45.8	45.8	79	39.7	0	1	158	0.00	29.900 
07:20	45.8	45.8	45.8	79	39.7	0	1	158	0.00	29.900 
07:25	46.0	46.0	46.0	79	39.9	0	2	158	0.00	29.900 
07:30	46.1	46.1	46.1	79	40.0	0	2	158	0.00	29.906 
07:35	46.1	46.1	46.1	79	40.0	0	1	158	0.00	29.906 
07:40	46.2	46.2	46.2	79	40.1	0	1	158	0.00	29.906 
07:45	46.2	46.2	46.2	79	40.1	0	2	248	0.00	29.910 
07:50	46.4	46.4	46.4	80	40.6	0	2	248	0.00	29.910 
07:55	46.5	46.5	46.5	81	41.0	0	1	248	0.01	29.910 
08:00	46.7	46.7	46.7	81	41.2	0	2	22	0.00	29.913 
08:05	46.8	46.8	46.8	81	41.3	1	3	112	0.00	29.913 
08:10	46.8	46.8	46.8	80	41.0	1	4	158	0.00	29.913 
08:15	47.0	47.0	47.0	81	41.5	1	5	90	0.00	29.913 
08:20	47.1	47.1	47.1	81	41.6	1	6	112	0.00	29.913 
08:25	47.1	47.1	47.1	82	41.9	0	3	68	0.00	29.913 
08:30	47.1	47.1	47.1	81	41.6	2	5	68	0.00	29.914 
08:35	47.3	47.3	47.3	82	42.1	1	4	90	0.00	29.914 
08:40	47.3	47.3	47.3	82	42.1	0	3	90	0.00	29.914 
08:45	47.4	47.4	47.4	83	42.5	0	3	112	0.00	29.916 
08:50	47.4	47.4	47.4	83	42.5	1	3	90	0.00	29.916 
08:55	47.6	47.6	47.6	83	42.7	1	4	45	0.00	29.916 
09:00	47.7	47.7	47.7	83	42.8	1	4	90	0.00	29.913 
09:05	47.9	47.9	47.9	83	43.0	2	9	112	0.00	29.913 
09:10	48.2	48.2	48.2	83	43.3	1	4	90	0.00	29.913 
09:15	48.3	48.3	48.3	83	43.4	2	6	90	0.00	29.918 
09:20	48.6	48.6	48.6	82	43.4	2	9	90	0.00	29.918 
09:25	48.8	48.8	48.8	82	43.6	1	4	45	0.00	29.918 
09:30	48.8	48.8	48.8	82	43.6	3	9	68	0.00	29.916 
09:35	48.8	48.8	48.8	83	43.9	1	6	90	0.00	29.916 
09:40	48.8	48.8	48.8	83	43.9	2	7	135	0.00	29.916 
09:45	48.8	48.8	48.8	83	43.9	2	5	112	0.00	29.916 
09:50	48.9	48.9	48.9	83	44.0	1	4	112	0.00	29.916 
09:55	48.9	48.9	48.9	83	44.0	1	3	112	0.00	29.916 
10:00	49.1	49.1	49.1	83	44.2	1	6	90	0.00	29.914 
10:05	49.4	49.4	49.4	83	44.5	1	5	45	0.00	29.914 
10:10	49.4	49.4	49.4	81	43.8	3	10	90	0.00	29.914 
10:15	49.4	49.4	49.4	81	43.8	1	5	112	0.00	29.910 
10:20	49.4	49.4	49.4	81	43.8	2	5	112	0.00	29.910 
10:25	49.5	49.5	49.5	81	43.9	2	6	45	0.00	29.910 
10:30	49.5	49.5	49.5	81	43.9	2	6	90	0.00	29.911 
10:35	49.5	49.5	49.5	81	43.9	2	5	112	0.00	29.911 
10:40	49.6	49.6	49.6	81	44.0	1	6	112	0.00	29.911 
10:45	50.1	50.1	50.1	81	44.5	2	5	90	0.00	29.913 
10:50	50.5	50.5	50.5	80	44.6	2	7	68	0.00	29.913 
10:55	50.8	50.8	50.8	79	44.5	2	6	112	0.00	29.913 
11:00	51.3	51.3	51.3	78	44.7	2	13	90	0.00	29.905 
11:05	51.6	51.6	51.6	78	45.0	2	5	112	0.00	29.905 
11:10	51.7	51.7	51.7	78	45.1	2	4	90	0.00	29.905 
11:15	51.9	51.9	51.9	77	44.9	2	9	90	0.00	29.899 
11:20	52.0	52.0	52.0	77	45.0	1	5	90	0.00	29.899 
11:25	52.2	52.2	52.2	75	44.5	2	6	112	0.00	29.899 
11:30	52.2	52.2	52.2	75	44.5	3	6	112	0.00	29.898 
11:35	52.3	52.3	52.3	76	45.0	1	6	68	0.00	29.898 
11:40	52.5	52.5	52.5	75	44.8	1	5	112	0.00	29.898 
11:45	52.8	52.8	52.8	75	45.1	2	5	112	0.00	29.896 
11:50	53.1	53.1	53.1	74	45.0	2	6	112	0.00	29.896 
11:55	53.3	53.3	53.3	74	45.2	1	5	68	0.00	29.896 
12:00	53.5	53.5	53.5	72	44.7	2	7	68	0.00	29.895 
12:05	53.8	53.8	53.8	74	45.7	1	3	90	0.00	29.895 
12:10	53.6	53.6	53.6	72	44.8	2	6	112	0.00	29.895 
12:15	53.6	53.6	53.6	73	45.2	2	7	45	0.00	29.892 
12:20	53.6	53.6	53.6	73	45.2	1	5	90	0.00	29.892 
12:25	53.6	53.6	53.6	72	44.8	2	7	135	0.00	29.892 
12:30	53.6	53.6	53.6	73	45.2	1	4	68	0.00	29.885 
12:35	53.9	53.9	53.9	73	45.4	2	6	22	0.00	29.885 
12:40	54.5	54.5	54.5	72	45.7	4	9	90	0.00	29.885 
12:45	55.1	55.1	55.1	72	46.2	3	7	112	0.00	29.882 
12:50	55.3	55.3	55.3	71	46.1	3	9	90	0.00	29.882 
12:55	55.4	55.4	55.4	72	46.5	2	6	112	0.00	29.882 
13:00	55.0	55.0	55.0	72	46.1	3	10	90	0.00	29.882 
13:05	54.7	54.7	54.7	72	45.9	3	10	112	0.00	29.882 
13:10	54.7	54.7	54.7	73	46.2	2	8	90	0.00	29.882 
13:15	54.7	54.7	54.7	72	45.9	3	13	112	0.00	29.881 
13:20	54.7	54.7	54.7	72	45.9	1	6	45	0.00	29.881 
13:25	54.8	54.8	54.8	72	45.9	1	5	90	0.00	29.881 
13:30	54.8	54.8	54.8	72	45.9	3	10	90	0.00	29.875 
13:35	54.8	54.8	54.8	70	45.2	3	11	90	0.00	29.875 
13:40	54.8	54.8	54.8	72	45.9	2	7	90	0.00	29.875 
13:45	55.3	55.3	55.3	72	46.4	1	4	68	0.00	29.873 
13:50	55.7	55.7	55.7	71	46.4	2	11	45	0.00	29.873 
13:55	56.2	56.2	56.2	71	46.9	2	7	112	0.00	29.873 
14:00	56.5	56.5	56.5	68	46.1	3	10	112	0.00	29.867 
14:05	56.3	56.3	56.3	70	46.6	2	7	112	0.00	29.867 
14:10	56.2	56.2	56.2	69	46.2	4	10	90	0.00	29.867 
14:15	56.3	56.3	56.3	69	46.3	3	8	112	0.00	29.864 
14:20	56.6	56.6	56.6	69	46.5	2	5	90	0.00	29.864 
14:25	56.9	56.9	56.9	69	46.8	1	5	112	0.00	29.864 
14:30	56.7	56.7	56.7	68	46.3	2	5	68	0.00	29.863 
14:35	56.7	56.7	56.7	69	46.6	1	4	90	0.00	29.863 
14:40	56.6	56.6	56.6	70	46.9	1	6	112	0.00	29.863 
14:45	56.5	56.5	56.5	70	46.8	3	9	112	0.00	29.863 
14:50	56.6	56.6	56.6	72	47.7	1	4	90	0.00	29.863 
14:55	56.6	56.6	56.6	70	46.9	2	6	90	0.00	29.863 
15:00	56.7	56.7	56.7	70	47.0	2	6	90	0.00	29.861 
15:05	56.7	56.7	56.7	69	46.6	3	7	112	0.00	29.861 
15:10	56.7	56.7	56.7	70	47.0	2	7	90	0.00	29.861 
15:15	56.7	56.7	56.7	69	46.6	2	6	90	0.00	29.863 
15:20	56.6	56.6	56.6	69	46.5	2	12	112	0.00	29.863 
15:25	56.6	56.6	56.6	70	46.9	1	4	135	0.00	29.863 
15:30	56.6	56.6	56.6	69	46.5	3	9	90	0.00	29.859 
15:35	56.6	56.6	56.6	68	46.2	3	7	90	0.00	29.859 
15:40	56.7	56.7	56.7	71	47.4	1	3	112	0.00	29.859 
15:45	57.0	57.0	57.0	69	46.9	0	3	112	0.00	29.855 
15:50	57.2	57.2	57.2	70	47.5	1	6	112	0.00	29.855 
15:55	57.2	57.2	57.2	68	46.7	1	5	90	0.00	29.855 
16:00	57.3	57.3	57.3	68	46.8	1	6	90	0.00	29.850 
16:05	57.5	57.5	57.5	68	47.0	1	4	45	0.00	29.850 
16:10	57.5	57.5	57.5	68	47.0	1	7	112	0.00	29.850 
16:15	57.5	57.5	57.5	67	46.6	2	5	112	0.00	29.847 
16:20	57.5	57.5	57.5	68	47.0	0	3	135	0.00	29.847 
16:25	57.3	57.3	57.3	68	46.8	1	5	90	0.00	29.847 
16:30	57.2	57.2	57.2	67	46.3	1	6	112	0.00	29.845 
16:35	56.9	56.9	56.9	68	46.4	0	2	68	0.00	29.845 
16:40	56.7	56.7	56.7	69	46.6	1	4	248	0.00	29.845 
16:45	56.5	56.5	56.5	68	46.1	0	2	112	0.00	29.844 
16:50	56.5	56.5	56.5	70	46.8	0	3	90	0.00	29.844 
16:55	56.5	56.5	56.5	70	46.8	2	5	112	0.00	29.844 
17:00	56.5	56.5	56.5	69	46.5	1	5	112	0.00	29.841 
17:05	56.5	56.5	56.5	70	46.8	1	5	112	0.00	29.841 
17:10	56.5	56.5	56.5	69	46.5	2	5	112	0.00	29.841 
17:15	56.5	56.5	56.5	69	46.5	1	4	135	0.00	29.845 
17:20	56.5	56.5	56.5	69	46.5	1	7	68	0.00	29.845 
17:25	56.2	56.2	56.2	70	46.5	0	2	68	0.00	29.845 
17:30	56.0	56.0	56.0	70	46.4	0	1	68	0.00	29.846 
17:35	55.9	55.9	55.9	72	47.0	1	3	90	0.00	29.846 
17:40	55.6	55.6	55.6	72	46.7	1	4	90	0.00	29.846 
17:45	55.4	55.4	55.4	73	46.9	0	3	135	0.00	29.848 
17:50	55.3	55.3	55.3	73	46.8	1	3	112	0.00	29.848 
17:55	55.3	55.3	55.3	73	46.8	0	4	112	0.00	29.848 
18:00	55.3	55.3	55.3	73	46.8	0	2	112	0.00	29.847 
18:05	55.3	55.3	55.3	73	46.8	1	4	112	0.00	29.847 
18:10	55.3	55.3	55.3	73	46.8	1	7	68	0.00	29.847 
18:15	55.3	55.3	55.3	71	46.1	1	7	112	0.00	29.846 
18:20	55.3	55.3	55.3	71	46.1	0	4	112	0.00	29.846 
18:25	55.3	55.3	55.3	71	46.1	1	4	338	0.00	29.846 
18:30	55.3	55.3	55.3	71	46.1	0	2	68	0.00	29.847 
18:35	55.1	55.1	55.1	71	45.9	1	5	158	0.00	29.847 
18:40	55.1	55.1	55.1	71	45.9	1	4	135	0.00	29.847 
18:45	55.1	55.1	55.1	72	46.2	0	2	135	0.00	29.846 
18:50	55.1	55.1	55.1	72	46.2	0	3	135	0.00	29.846 
18:55	55.0	55.0	55.0	72	46.1	1	5	112	0.00	29.846 
19:00	55.0	55.0	55.0	71	45.8	0	3	135	0.00	29.846 
19:05	55.0	55.0	55.0	72	46.1	1	4	90	0.00	29.846 
19:10	55.0	55.0	55.0	72	46.1	1	4	135	0.00	29.846 
19:15	54.8	54.8	54.8	73	46.3	1	3	248	0.00	29.845 
19:20	54.8	54.8	54.8	73	46.3	1	6	90	0.00	29.845 
19:25	54.8	54.8	54.8	72	45.9	1	5	158	0.00	29.845 
19:30	54.7	54.7	54.7	73	46.2	0	2	158	0.00	29.845 
19:35	54.7	54.7	54.7	73	46.2	1	6	112	0.00	29.845 
19:40	54.7	54.7	54.7	74	46.6	1	4	112	0.00	29.845 
19:45	54.5	54.5	54.5	75	46.7	1	4	90	0.00	29.846 
19:50	54.4	54.4	54.4	76	47.0	1	3	90	0.00	29.846 
19:55	54.2	54.2	54.2	77	47.1	2	6	90	0.00	29.846 
20:00	53.9	53.9	53.9	78	47.2	1	5	158	0.00	29.848 
20:05	53.8	53.8	53.8	80	47.8	0	2	112	0.00	29.848 
20:10	53.6	53.6	53.6	82	48.2	0	2	112	0.00	29.848 
20:15	53.2	53.2	53.2	83	48.2	0	4	22	0.00	29.848 
20:20	52.9	52.9	52.9	84	48.2	0	1	112	0.00	29.848 
20:25	52.6	52.6	52.6	84	47.9	0	1	112	0.00	29.848 
20:30	52.5	52.5	52.5	85	48.1	0	3	112	0.00	29.848 
20:35	52.3	52.3	52.3	86	48.2	0	4	135	0.00	29.848 
20:40	52.2	52.2	52.2	86	48.1	0	1	135	0.00	29.848 
20:45	52.0	52.0	52.0	86	47.9	0	1	135	0.00	29.847 
20:50	52.0	52.0	52.0	87	48.3	0	1	135	0.00	29.847 
20:55	51.9	51.9	51.9	86	47.8	1	5	135	0.00	29.847 
21:00	51.9	51.9	51.9	87	48.2	0	3	90	0.00	29.846 
21:05	51.7	51.7	51.7	87	48.0	0	1	90	0.00	29.846 
21:10	51.7	51.7	51.7	87	48.0	0	2	90	0.00	29.846 
21:15	51.6	51.6	51.6	87	47.9	0	1	90	0.00	29.840 
21:20	51.6	51.6	51.6	88	48.2	0	1	90	0.00	29.840 
21:25	51.6	51.6	51.6	88	48.2	0	1	90	0.00	29.840 
21:30	51.6	51.6	51.6	88	48.2	0	0	---	0.00	29.834 
21:35	51.6	51.6	51.6	88	48.2	0	0	---	0.00	29.834 
21:40	51.6	51.6	51.6	88	48.2	0	1	90	0.00	29.834 
21:45	51.6	51.6	51.6	89	48.5	0	1	90	0.00	29.835 
21:50	51.4	51.4	51.4	89	48.3	0	2	90	0.00	29.835 
21:55	51.4	51.4	51.4	89	48.3	0	4	158	0.00	29.835 
22:00	51.4	51.4	51.4	89	48.3	0	2	158	0.00	29.833 
22:05	51.3	51.3	51.3	90	48.5	0	1	158	0.00	29.833 
22:10	51.3	51.3	51.3	90	48.5	0	2	158	0.00	29.833 
22:15	51.3	51.3	51.3	90	48.5	0	1	158	0.01	29.830 
22:20	51.3	51.3	51.3	90	48.5	0	1	158	0.00	29.830 
22:25	51.1	51.1	51.1	90	48.3	0	1	158	0.00	29.830 
22:30	51.1	51.1	51.1	91	48.6	0	2	158	0.00	29.829 
22:35	51.0	51.0	51.0	91	48.5	0	1	158	0.00	29.829 
22:40	51.0	51.0	51.0	91	48.5	0	1	158	0.00	29.829 
22:45	51.0	51.0	51.0	91	48.5	0	3	270	0.00	29.828 
22:50	51.0	51.0	51.0	92	48.8	0	1	270	0.00	29.828 
22:55	51.0	51.0	51.0	92	48.8	0	2	270	0.00	29.828 
23:00	51.0	51.0	51.0	92	48.8	0	2	270	0.00	29.825 
23:05	50.8	50.8	50.8	92	48.6	0	2	270	0.00	29.825 
23:10	50.8	50.8	50.8	92	48.6	0	2	270	0.00	29.825 
23:15	50.8	50.8	50.8	92	48.6	0	1	270	0.00	29.816 
23:20	50.8	50.8	50.8	92	48.6	0	1	270	0.00	29.816 
23:25	50.8	50.8	50.8	92	48.6	0	1	270	0.00	29.816 
23:30	50.8	50.8	50.8	92	48.6	0	1	270	0.01	29.814 
23:35	50.8	50.8	50.8	92	48.6	0	1	270	0.00	29.814 
23:40	50.8	50.8	50.8	93	48.8	0	0	---	0.00	29.814 
23:45	50.8	50.8	50.8	93	48.8	0	1	270	0.00	29.815 
23:50	50.7	50.7	50.7	93	48.7	0	1	270	0.01	29.815 
23:55	50.7	50.7	50.7	93	48.7	0	1	270	0.00	29.815 

CoCoRaHS
IN-AL-39
A2 Web Hosting
Creative Commons License
GoDaddy
search engine by freefind advanced

loaded 2018-11-15 15:46:24 • last modified 2010-11-18 10:43:29
Privacy PolicyDisclaimer
• wx.awcolley.com is powered by PmWiki v.2002016 •
• all content (unless otherwise noted) © 2018 A W Colley